Time;durP1;ratioP1;P1;durP2;ratioP2;P2;SDS_P1;SDS_P2;PMS_P1;PMS_P2;Temp;Humidity;BMP_temperature;BMP_pressure;BME280_temperature;BME280_humidity;BME280_pressure;Samples;Min_cycle;Max_cycle;Signal;HPM_P1;HPM_P2
2021/10/18 00:03:32;;;;;;;7.75;6.95;;;;;;;;;;10459771;28;20101;-74
2021/10/18 00:08:32;;;;;;;11.27;6.30;;;;;;;;;;10459257;28;20102;-74
2021/10/18 00:13:33;;;;;;;12.57;7.63;;;;;;;;;;10460633;28;20325;-75
2021/10/18 00:18:33;;;;;;;10.50;8.43;;;;;;;;;;10459618;28;20108;-74
2021/10/18 00:23:33;;;;;;;9.80;7.88;;;;;;;;;;10458961;28;20064;-74
2021/10/18 00:28:34;;;;;;;11.20;8.48;;;;;;;;;;10459960;28;20111;-74
2021/10/18 00:33:34;;;;;;;16.52;7.53;;;;;;;;;;10459572;28;20040;-74
2021/10/18 00:38:37;;;;;;;8.73;6.75;;;;;;;;;;10459839;28;20450;-74
2021/10/18 00:43:42;;;;;;;9.40;8.23;;;;;;;;;;10441764;28;20071;-74
2021/10/18 00:48:43;;;;;;;14.07;8.15;;;;;;;;;;10456975;28;20102;-74
2021/10/18 00:53:46;;;;;;;12.13;7.47;;;;;;;;;;10459201;28;20113;-75
2021/10/18 00:58:46;;;;;;;17.00;9.23;;;;;;;;;;10441219;28;20036;-74
2021/10/18 01:03:46;;;;;;;7.72;6.88;;;;;;;;;;10457577;28;20040;-74
2021/10/18 01:08:46;;;;;;;11.05;8.07;;;;;;;;;;10458341;28;20477;-74
2021/10/18 01:13:49;;;;;;;12.23;8.82;;;;;;;;;;10441167;28;20029;-75
2021/10/18 01:18:49;;;;;;;11.75;8.25;;;;;;;;;;10457395;28;20029;-74
2021/10/18 01:23:50;;;;;;;11.35;7.88;;;;;;;;;;10457886;28;20513;-74
2021/10/18 01:28:50;;;;;;;11.07;7.47;;;;;;;;;;10457934;28;20397;-73
2021/10/18 01:33:51;;;;;;;10.90;7.70;;;;;;;;;;10457514;28;20036;-75
2021/10/18 01:38:51;;;;;;;11.52;8.02;;;;;;;;;;10456105;28;20021;-74
2021/10/18 01:43:52;;;;;;;16.10;8.00;;;;;;;;;;10457114;28;20116;-74
2021/10/18 01:48:55;;;;;;;9.23;8.02;;;;;;;;;;10456272;28;20468;-74
2021/10/18 01:53:55;;;;;;;12.52;9.30;;;;;;;;;;10455151;28;20114;-74
2021/10/18 01:58:56;;;;;;;10.43;7.78;;;;;;;;;;10455539;28;20526;-74
2021/10/18 02:03:56;;;;;;;20.87;11.10;;;;;;;;;;10456646;28;20293;-74
2021/10/18 02:08:57;;;;;;;13.77;8.87;;;;;;;;;;10456707;28;20290;-74
2021/10/18 02:13:58;;;;;;;11.52;8.32;;;;;;;;;;10456902;28;20249;-74
2021/10/18 02:18:58;;;;;;;12.77;8.52;;;;;;;;;;10455665;28;20116;-74
2021/10/18 02:23:58;;;;;;;19.53;9.83;;;;;;;;;;10456325;28;20070;-75
2021/10/18 02:28:59;;;;;;;13.80;10.32;;;;;;;;;;10455909;28;20278;-74
2021/10/18 02:33:59;;;;;;;9.80;8.80;;;;;;;;;;10455583;28;20045;-74
2021/10/18 02:39:07;;;;;;;13.45;9.68;;;;;;;;;;10454618;28;20043;-74
2021/10/18 02:44:07;;;;;;;13.02;10.38;;;;;;;;;;10455645;28;20036;-74
2021/10/18 02:49:07;;;;;;;13.52;9.90;;;;;;;;;;10454649;28;20044;-74
2021/10/18 02:54:09;;;;;;;22.10;11.15;;;;;;;;;;10455798;28;20025;-74
2021/10/18 02:59:10;;;;;;;20.38;11.02;;;;;;;;;;10454213;28;20040;-74
2021/10/18 03:04:10;;;;;;;17.23;10.27;;;;;;;;;;10457698;28;20021;-74
2021/10/18 03:09:10;;;;;;;15.07;12.23;;;;;;;;;;10463262;28;20489;-74
2021/10/18 03:14:10;;;;;;;20.55;14.73;;;;;;;;;;10444951;28;20384;-74
2021/10/18 03:19:11;;;;;;;12.80;11.40;;;;;;;;;;10460896;28;20033;-74
2021/10/18 03:24:11;;;;;;;17.58;13.63;;;;;;;;;;10462535;28;20273;-74
2021/10/18 03:29:11;;;;;;;20.27;13.80;;;;;;;;;;10462112;28;20086;-74
2021/10/18 03:34:11;;;;;;;16.77;12.60;;;;;;;;;;10462084;28;20056;-73
2021/10/18 03:39:12;;;;;;;23.52;14.10;;;;;;;;;;10461674;28;20618;-73
2021/10/18 03:44:12;;;;;;;23.40;13.82;;;;;;;;;;10461939;28;20056;-74
2021/10/18 03:49:13;;;;;;;18.40;14.98;;;;;;;;;;10459545;28;20036;-74
2021/10/18 03:54:14;;;;;;;20.00;14.82;;;;;;;;;;10461652;28;20028;-74
2021/10/18 03:59:14;;;;;;;27.60;16.70;;;;;;;;;;10460024;28;20472;-74
2021/10/18 04:04:14;;;;;;;24.95;16.55;;;;;;;;;;10460820;28;20035;-73
2021/10/18 04:09:15;;;;;;;22.88;15.65;;;;;;;;;;10460813;28;20067;-74
2021/10/18 04:14:15;;;;;;;18.50;14.52;;;;;;;;;;10458800;28;20033;-74
2021/10/18 04:19:15;;;;;;;22.33;17.23;;;;;;;;;;10459909;28;20037;-73
2021/10/18 04:24:16;;;;;;;34.38;15.73;;;;;;;;;;10460053;28;20025;-74
2021/10/18 04:29:16;;;;;;;22.77;16.23;;;;;;;;;;10459749;28;20114;-74
2021/10/18 04:34:16;;;;;;;18.58;15.52;;;;;;;;;;10459849;28;20158;-73
2021/10/18 04:39:16;;;;;;;18.83;14.57;;;;;;;;;;10459902;28;20465;-73
2021/10/18 04:44:16;;;;;;;20.30;14.95;;;;;;;;;;10458480;28;20037;-73
2021/10/18 04:49:17;;;;;;;26.00;15.00;;;;;;;;;;10458521;28;20037;-73
2021/10/18 04:54:26;;;;;;;28.40;15.85;;;;;;;;;;10440966;28;20518;-74
2021/10/18 04:59:29;;;;;;;16.83;15.13;;;;;;;;;;10459267;28;20025;-74
2021/10/18 05:04:29;;;;;;;24.33;17.15;;;;;;;;;;10458522;28;20032;-74
2021/10/18 05:09:30;;;;;;;27.83;16.67;;;;;;;;;;10401725;28;20560;-74
2021/10/18 05:14:30;;;;;;;27.55;16.42;;;;;;;;;;10456372;28;20029;-75
2021/10/18 05:19:30;;;;;;;29.52;18.00;;;;;;;;;;10458383;28;20025;-74
2021/10/18 05:24:30;;;;;;;22.92;17.92;;;;;;;;;;10457548;28;20170;-73
2021/10/18 05:29:30;;;;;;;24.65;17.35;;;;;;;;;;10456664;28;20126;-73
2021/10/18 05:34:31;;;;;;;33.60;19.20;;;;;;;;;;10457438;28;20435;-74
2021/10/18 05:39:31;;;;;;;33.33;18.07;;;;;;;;;;10457923;28;20033;-72
2021/10/18 05:44:31;;;;;;;23.17;17.42;;;;;;;;;;10459920;28;20288;-72
2021/10/18 05:49:31;;;;;;;41.65;21.40;;;;;;;;;;10460564;28;20040;-72
2021/10/18 05:54:32;;;;;;;25.67;20.38;;;;;;;;;;10457596;28;20033;-74
2021/10/18 05:59:32;;;;;;;28.85;18.60;;;;;;;;;;10456881;28;20033;-72
2021/10/18 06:04:35;;;;;;;24.52;20.08;;;;;;;;;;10456523;28;20086;-73
2021/10/18 06:09:35;;;;;;;32.28;18.45;;;;;;;;;;10456293;28;20063;-75
2021/10/18 06:14:35;;;;;;;23.38;17.90;;;;;;;;;;10454542;28;20386;-75
2021/10/18 06:19:35;;;;;;;27.70;20.15;;;;;;;;;;10455742;28;20039;-73
2021/10/18 06:24:36;;;;;;;26.90;19.10;;;;;;;;;;10456294;28;20033;-76
2021/10/18 06:29:36;;;;;;;26.50;20.48;;;;;;;;;;10455590;28;20095;-75
2021/10/18 06:34:36;;;;;;;27.08;18.55;;;;;;;;;;10455590;28;20531;-75
2021/10/18 06:39:37;;;;;;;26.08;18.35;;;;;;;;;;10460189;28;20029;-75
2021/10/18 06:44:37;;;;;;;24.77;19.63;;;;;;;;;;10445368;28;20036;-75
2021/10/18 06:49:37;;;;;;;27.00;17.17;;;;;;;;;;10463821;28;20056;-75
2021/10/18 06:54:40;;;;;;;24.85;18.38;;;;;;;;;;10463273;28;20112;-74
2021/10/18 06:59:40;;;;;;;22.98;18.02;;;;;;;;;;10462342;28;20116;-75
2021/10/18 07:04:41;;;;;;;29.05;19.50;;;;;;;;;;10462020;28;20595;-75
2021/10/18 07:09:42;;;;;;;35.42;21.35;;;;;;;;;;10462597;28;20073;-75
2021/10/18 07:14:43;;;;;;;33.22;21.13;;;;;;;;;;10462297;28;20041;-75
2021/10/18 07:19:43;;;;;;;28.38;18.45;;;;;;;;;;10462673;28;20395;-74
2021/10/18 07:24:43;;;;;;;30.83;19.70;;;;;;;;;;10462380;28;20047;-75
2021/10/18 07:29:44;;;;;;;31.63;19.40;;;;;;;;;;10461190;28;20032;-74
2021/10/18 07:34:44;;;;;;;25.95;19.30;;;;;;;;;;10461825;28;20531;-74
2021/10/18 07:39:44;;;;;;;25.10;17.88;;;;;;;;;;10462067;28;20029;-74
2021/10/18 07:44:45;;;;;;;35.58;17.23;;;;;;;;;;10461050;28;20068;-74
2021/10/18 07:49:45;;;;;;;23.55;16.98;;;;;;;;;;10460725;28;20029;-74
2021/10/18 07:54:50;;;;;;;18.38;16.42;;;;;;;;;;10461143;28;20021;-75
2021/10/18 07:59:50;;;;;;;25.17;17.83;;;;;;;;;;10459757;28;20020;-74
2021/10/18 08:04:50;;;;;;;30.67;17.13;;;;;;;;;;10460586;28;20037;-75
2021/10/18 08:09:51;;;;;;;23.92;16.58;;;;;;;;;;10460697;28;20104;-75
2021/10/18 08:14:51;;;;;;;36.47;19.88;;;;;;;;;;10459793;28;20384;-74
2021/10/18 08:19:51;;;;;;;24.45;16.95;;;;;;;;;;10459039;28;20520;-74
2021/10/18 08:24:52;;;;;;;23.75;18.27;;;;;;;;;;10458538;28;20032;-74
2021/10/18 08:29:52;;;;;;;23.80;17.90;;;;;;;;;;10458573;28;20449;-74
2021/10/18 08:34:52;;;;;;;23.08;15.95;;;;;;;;;;10459312;28;20780;-75
2021/10/18 08:40:02;;;;;;;25.02;18.13;;;;;;;;;;10459732;28;20025;-74
2021/10/18 08:45:03;;;;;;;22.38;15.43;;;;;;;;;;10457113;28;20481;-75
2021/10/18 08:50:05;;;;;;;18.75;14.90;;;;;;;;;;10458136;28;20087;-75
2021/10/18 08:55:05;;;;;;;22.55;15.95;;;;;;;;;;10457562;28;20032;-73
2021/10/18 09:00:06;;;;;;;24.88;16.60;;;;;;;;;;10458380;28;20337;-74
2021/10/18 09:05:07;;;;;;;19.17;15.00;;;;;;;;;;10458173;28;20404;-74
2021/10/18 09:10:10;;;;;;;20.20;14.80;;;;;;;;;;10456911;28;20060;-73
2021/10/18 09:15:17;;;;;;;16.20;12.80;;;;;;;;;;10457118;28;20103;-74
2021/10/18 09:20:24;;;;;;;25.23;15.20;;;;;;;;;;10457725;28;20362;-74
2021/10/18 09:25:34;;;;;;;25.83;15.63;;;;;;;;;;10457370;28;20028;-73
2021/10/18 09:30:41;;;;;;;20.20;14.85;;;;;;;;;;10457137;28;20029;-73
2021/10/18 09:35:41;;;;;;;20.17;14.63;;;;;;;;;;10455812;28;20033;-73
2021/10/18 09:40:45;;;;;;;16.85;14.23;;;;;;;;;;10456976;28;20037;-74
2021/10/18 09:45:55;;;;;;;23.70;14.50;;;;;;;;;;10455732;28;20049;-74
2021/10/18 10:55:26;;;;;;;18.15;12.80;;;;;;;;;;10455404;28;19988;-74
2021/10/18 11:00:29;;;;;;;15.65;13.32;;;;;;;;;;10455263;28;20017;-74
2021/10/18 11:05:29;;;;;;;23.00;10.75;;;;;;;;;;10454612;28;20102;-74
2021/10/18 11:10:30;;;;;;;22.33;14.75;;;;;;;;;;10454109;28;20163;-74
2021/10/18 11:15:30;;;;;;;19.70;13.85;;;;;;;;;;10454225;28;20121;-74
2021/10/18 11:20:31;;;;;;;17.67;12.13;;;;;;;;;;10454509;28;20029;-74
2021/10/18 11:25:33;;;;;;;18.77;12.70;;;;;;;;;;10455800;28;20071;-74
2021/10/18 11:30:34;;;;;;;12.35;10.95;;;;;;;;;;10460760;28;20056;-74
2021/10/18 11:35:34;;;;;;;16.90;12.05;;;;;;;;;;10461786;28;20052;-73
2021/10/18 11:40:34;;;;;;;24.13;13.20;;;;;;;;;;10461735;28;20528;-74
2021/10/18 11:45:36;;;;;;;15.48;11.93;;;;;;;;;;10461052;28;20388;-73
2021/10/18 11:50:37;;;;;;;14.45;11.98;;;;;;;;;;10460152;28;20075;-73
2021/10/18 11:55:38;;;;;;;21.15;11.65;;;;;;;;;;10459818;28;20031;-73
2021/10/18 12:00:42;;;;;;;13.63;10.25;;;;;;;;;;10461456;28;20522;-73
2021/10/18 12:05:49;;;;;;;15.63;12.15;;;;;;;;;;10461197;28;20049;-72
2021/10/18 12:10:50;;;;;;;16.13;12.75;;;;;;;;;;10466726;28;20040;-74
2021/10/18 12:15:56;;;;;;;18.73;11.80;;;;;;;;;;10464346;28;20112;-72
2021/10/18 12:20:59;;;;;;;18.45;11.52;;;;;;;;;;10461019;28;20147;-74
2021/10/18 12:26:12;;;;;;;17.50;11.57;;;;;;;;;;10460418;28;20113;-74
2021/10/18 12:31:30;;;;;;;14.70;11.93;;;;;;;;;;10460930;28;20472;-74
2021/10/18 12:36:31;;;;;;;10.77;9.68;;;;;;;;;;10460476;28;20063;-75
2021/10/18 12:41:40;;;;;;;15.60;10.65;;;;;;;;;;10460041;28;20484;-74
2021/10/18 12:46:43;;;;;;;20.35;9.80;;;;;;;;;;10457238;28;20029;-74
2021/10/18 12:51:47;;;;;;;13.77;9.57;;;;;;;;;;10459035;28;20036;-74
2021/10/18 12:56:57;;;;;;;12.18;9.55;;;;;;;;;;10459523;28;20051;-74
2021/10/18 13:02:16;;;;;;;12.52;8.55;;;;;;;;;;10458460;28;20025;-74
2021/10/18 13:07:16;;;;;;;11.82;9.43;;;;;;;;;;10458294;28;20481;-74
2021/10/18 13:12:17;;;;;;;14.35;9.55;;;;;;;;;;10458064;28;20028;-74
2021/10/18 13:17:17;;;;;;;16.10;10.25;;;;;;;;;;10456184;28;20028;-74
2021/10/18 13:22:18;;;;;;;13.77;10.93;;;;;;;;;;10457879;28;20032;-75
2021/10/18 13:27:18;;;;;;;14.93;10.57;;;;;;;;;;10456324;28;20361;-74
2021/10/18 13:32:18;;;;;;;12.67;10.30;;;;;;;;;;10457606;28;20465;-74
2021/10/18 13:37:19;;;;;;;20.67;12.05;;;;;;;;;;10457141;28;20266;-74
2021/10/18 13:42:19;;;;;;;19.17;10.43;;;;;;;;;;10457093;28;20024;-74
2021/10/18 13:47:19;;;;;;;12.95;9.57;;;;;;;;;;10455281;28;20032;-74
2021/10/18 13:52:19;;;;;;;11.18;9.73;;;;;;;;;;10456716;28;20029;-74
2021/10/18 13:57:21;;;;;;;20.33;10.00;;;;;;;;;;10456837;28;20044;-74
2021/10/18 14:02:21;;;;;;;11.15;9.38;;;;;;;;;;10455115;28;20435;-74
2021/10/18 14:07:22;;;;;;;11.80;9.60;;;;;;;;;;10456202;28;20052;-74
2021/10/18 14:12:22;;;;;;;23.80;10.85;;;;;;;;;;10456368;28;20037;-74
2021/10/18 14:17:23;;;;;;;14.68;9.52;;;;;;;;;;10455641;28;20053;-74
2021/10/18 14:22:24;;;;;;;13.40;9.18;;;;;;;;;;10456061;28;20055;-74
2021/10/18 14:27:24;;;;;;;20.52;9.68;;;;;;;;;;10455761;28;20115;-74
2021/10/18 14:32:24;;;;;;;14.90;9.82;;;;;;;;;;10454937;28;20424;-74
2021/10/18 14:37:24;;;;;;;14.52;8.30;;;;;;;;;;10456175;28;20459;-74
2021/10/18 14:42:25;;;;;;;10.23;9.00;;;;;;;;;;10455372;28;20064;-73
2021/10/18 14:47:25;;;;;;;12.18;9.18;;;;;;;;;;10455196;28;20071;-74
2021/10/18 14:52:25;;;;;;;14.52;10.75;;;;;;;;;;10454253;28;20388;-74
2021/10/18 14:57:25;;;;;;;16.33;10.17;;;;;;;;;;10455347;28;20021;-74
2021/10/18 15:02:26;;;;;;;21.33;10.45;;;;;;;;;;10463397;28;20761;-74
2021/10/18 15:07:27;;;;;;;11.60;9.25;;;;;;;;;;10461773;28;20060;-75
2021/10/18 15:12:31;;;;;;;13.95;9.55;;;;;;;;;;10462726;28;20041;-74
2021/10/18 15:17:31;;;;;;;17.02;8.35;;;;;;;;;;10462353;28;20078;-74
2021/10/18 15:22:31;;;;;;;24.30;9.43;;;;;;;;;;10463430;28;20098;-74
2021/10/18 15:27:32;;;;;;;19.48;10.32;;;;;;;;;;10462319;28;20033;-74
2021/10/18 15:32:33;;;;;;;11.02;8.55;;;;;;;;;;10462070;28;20473;-74
2021/10/18 15:37:33;;;;;;;14.32;10.27;;;;;;;;;;10461925;28;20029;-74
2021/10/18 15:42:34;;;;;;;17.67;8.48;;;;;;;;;;10461707;28;20112;-74
2021/10/18 15:47:34;;;;;;;13.18;7.70;;;;;;;;;;10459917;28;20040;-74
2021/10/18 15:52:34;;;;;;;14.10;7.95;;;;;;;;;;10460085;28;20051;-73
2021/10/18 15:57:35;;;;;;;7.68;6.78;;;;;;;;;;10459922;28;20025;-74
2021/10/18 16:02:35;;;;;;;11.32;8.35;;;;;;;;;;10459780;28;20029;-74
2021/10/18 16:07:35;;;;;;;13.77;8.57;;;;;;;;;;10460301;28;20114;-74
2021/10/18 16:12:36;;;;;;;12.20;7.97;;;;;;;;;;10460122;28;20056;-74
2021/10/18 16:17:36;;;;;;;9.45;8.27;;;;;;;;;;10460295;28;20262;-74
2021/10/18 16:22:37;;;;;;;15.13;8.25;;;;;;;;;;10459154;28;20040;-73
2021/10/18 16:27:37;;;;;;;13.95;8.32;;;;;;;;;;10460023;28;20029;-74
2021/10/18 16:32:37;;;;;;;14.00;9.93;;;;;;;;;;10459701;28;20041;-74
2021/10/18 16:37:39;;;;;;;10.30;8.23;;;;;;;;;;10442142;28;20025;-74
2021/10/18 16:42:39;;;;;;;19.38;8.73;;;;;;;;;;10459723;28;20029;-74
2021/10/18 16:47:39;;;;;;;14.68;8.55;;;;;;;;;;10457526;28;20116;-74
2021/10/18 16:52:40;;;;;;;10.40;7.53;;;;;;;;;;10458138;28;20037;-74
2021/10/18 16:57:40;;;;;;;13.82;6.95;;;;;;;;;;10458869;28;20104;-74
2021/10/18 17:02:40;;;;;;;14.80;8.82;;;;;;;;;;10457614;28;20771;-74
2021/10/18 17:07:41;;;;;;;11.75;7.50;;;;;;;;;;10458775;28;20057;-74
2021/10/18 17:12:41;;;;;;;16.58;9.50;;;;;;;;;;10458752;28;20025;-74
2021/10/18 17:17:41;;;;;;;17.13;8.00;;;;;;;;;;10457417;28;20036;-73
2021/10/18 17:22:42;;;;;;;12.50;9.15;;;;;;;;;;10456828;28;20416;-75
2021/10/18 17:27:42;;;;;;;21.88;9.57;;;;;;;;;;10457660;28;20039;-74
2021/10/18 17:32:42;;;;;;;13.85;8.35;;;;;;;;;;10457544;28;20029;-74
2021/10/18 17:37:43;;;;;;;12.40;8.25;;;;;;;;;;10457254;28;20027;-74
2021/10/18 17:42:43;;;;;;;8.02;7.18;;;;;;;;;;10457263;28;20036;-74
2021/10/18 17:47:44;;;;;;;12.02;7.53;;;;;;;;;;10456613;28;20029;-74
2021/10/18 17:52:44;;;;;;;13.10;10.15;;;;;;;;;;10456824;28;20060;-73
2021/10/18 17:57:44;;;;;;;14.20;9.65;;;;;;;;;;10456634;28;20520;-74
2021/10/18 18:02:45;;;;;;;13.40;8.93;;;;;;;;;;10455753;28;20032;-74
2021/10/18 18:07:45;;;;;;;9.82;8.73;;;;;;;;;;10455184;28;20143;-74
2021/10/18 18:12:45;;;;;;;14.18;9.00;;;;;;;;;;10454944;28;20119;-74
2021/10/18 18:17:47;;;;;;;11.82;7.38;;;;;;;;;;10456779;28;20107;-74
2021/10/18 18:22:47;;;;;;;8.77;7.03;;;;;;;;;;10456028;28;20020;-74
2021/10/18 18:27:48;;;;;;;23.52;7.43;;;;;;;;;;10456285;28;20083;-73
2021/10/18 18:32:50;;;;;;;8.73;7.70;;;;;;;;;;10455806;28;20370;-74
2021/10/18 18:37:51;;;;;;;14.88;9.15;;;;;;;;;;10468750;28;20032;-72
2021/10/18 18:42:51;;;;;;;11.82;7.43;;;;;;;;;;10475629;28;20036;-72
2021/10/18 18:47:52;;;;;;;11.02;6.88;;;;;;;;;;10454569;28;20052;-73
2021/10/18 18:52:52;;;;;;;10.57;7.07;;;;;;;;;;10505566;28;20039;-73
2021/10/18 18:57:52;;;;;;;13.88;8.52;;;;;;;;;;10505096;28;20261;-73
2021/10/18 19:02:55;;;;;;;8.15;6.95;;;;;;;;;;10504701;28;20024;-73
2021/10/18 19:07:55;;;;;;;9.75;8.15;;;;;;;;;;10504655;28;20454;-74
2021/10/18 19:12:55;;;;;;;9.57;7.00;;;;;;;;;;10503159;28;20021;-74
2021/10/18 19:17:55;;;;;;;12.32;8.65;;;;;;;;;;10503240;28;20103;-76
2021/10/18 19:22:56;;;;;;;16.10;8.85;;;;;;;;;;10501729;28;20035;-74
2021/10/18 19:27:56;;;;;;;12.02;8.30;;;;;;;;;;10501778;28;20378;-73
2021/10/18 19:32:56;;;;;;;9.63;7.90;;;;;;;;;;10503497;28;20058;-73
2021/10/18 19:37:57;;;;;;;14.52;8.40;;;;;;;;;;10516959;28;20028;-74
2021/10/18 19:42:57;;;;;;;9.32;8.30;;;;;;;;;;10543460;28;20028;-74
2021/10/18 19:47:57;;;;;;;12.10;8.15;;;;;;;;;;10541884;28;20044;-74
2021/10/18 19:52:57;;;;;;;12.02;9.48;;;;;;;;;;10502050;28;20040;-74
2021/10/18 19:57:58;;;;;;;14.23;9.38;;;;;;;;;;10501314;28;20115;-73
2021/10/18 20:02:58;;;;;;;11.13;9.32;;;;;;;;;;10500919;28;20024;-75
2021/10/18 20:07:58;;;;;;;12.68;9.75;;;;;;;;;;10500967;28;20063;-74
2021/10/18 20:12:58;;;;;;;12.27;8.23;;;;;;;;;;10502503;28;20025;-75
2021/10/18 20:17:59;;;;;;;13.40;10.85;;;;;;;;;;10501032;28;20265;-75
2021/10/18 20:22:59;;;;;;;11.68;10.45;;;;;;;;;;10501723;28;20032;-74
2021/10/18 20:27:59;;;;;;;12.85;9.70;;;;;;;;;;10500112;28;20395;-75
2021/10/18 20:33:01;;;;;;;14.65;10.82;;;;;;;;;;10501647;28;20552;-73
2021/10/18 20:38:01;;;;;;;14.27;10.48;;;;;;;;;;10500462;28;20031;-74
2021/10/18 20:43:01;;;;;;;12.18;9.57;;;;;;;;;;10501009;28;20541;-74
2021/10/18 20:48:02;;;;;;;21.40;10.77;;;;;;;;;;10499863;28;20573;-74
2021/10/18 20:53:03;;;;;;;12.30;10.98;;;;;;;;;;10500459;28;20476;-74
2021/10/18 20:58:03;;;;;;;16.40;11.00;;;;;;;;;;10499975;28;20024;-74
2021/10/18 21:03:03;;;;;;;10.98;9.55;;;;;;;;;;10500523;28;20033;-74
2021/10/18 21:08:04;;;;;;;17.98;11.32;;;;;;;;;;10498704;28;20053;-74
2021/10/18 21:13:04;;;;;;;14.32;10.50;;;;;;;;;;10499623;28;20389;-73
2021/10/18 21:18:04;;;;;;;17.67;11.55;;;;;;;;;;10497437;28;20392;-74
2021/10/18 21:23:04;;;;;;;19.42;12.40;;;;;;;;;;10498253;28;20169;-73
2021/10/18 21:28:05;;;;;;;19.42;13.07;;;;;;;;;;10497842;28;20380;-74
2021/10/18 21:33:05;;;;;;;18.20;11.77;;;;;;;;;;10498919;28;20111;-77
2021/10/18 21:38:05;;;;;;;15.93;10.30;;;;;;;;;;10499528;28;20344;-74
2021/10/18 21:43:06;;;;;;;12.52;10.88;;;;;;;;;;10498722;28;20032;-75
2021/10/18 21:48:06;;;;;;;19.13;10.98;;;;;;;;;;10497975;28;20098;-74
2021/10/18 21:53:07;;;;;;;15.43;12.07;;;;;;;;;;10498770;28;20086;-74
2021/10/18 21:58:08;;;;;;;16.13;10.88;;;;;;;;;;10496952;28;20293;-75
2021/10/18 22:03:11;;;;;;;15.60;11.85;;;;;;;;;;10498149;28;20506;-75
2021/10/18 22:08:11;;;;;;;15.57;10.68;;;;;;;;;;10497136;28;20408;-74
2021/10/18 22:13:11;;;;;;;14.93;10.35;;;;;;;;;;10497967;28;20028;-74
2021/10/18 22:18:12;;;;;;;16.55;11.27;;;;;;;;;;10496143;28;20029;-74
2021/10/18 22:23:12;;;;;;;18.20;11.75;;;;;;;;;;10497764;28;20483;-75
2021/10/18 22:28:15;;;;;;;17.23;12.37;;;;;;;;;;10497803;28;20090;-74
2021/10/18 22:33:15;;;;;;;23.33;12.15;;;;;;;;;;10497731;28;20326;-74
2021/10/18 22:38:17;;;;;;;17.80;13.20;;;;;;;;;;10498197;28;20066;-74
2021/10/18 22:43:18;;;;;;;13.35;11.93;;;;;;;;;;10497771;28;20025;-74
2021/10/18 22:48:18;;;;;;;16.45;13.70;;;;;;;;;;10496474;28;20106;-75
2021/10/18 22:53:18;;;;;;;13.45;11.68;;;;;;;;;;10496350;28;20037;-74
2021/10/18 22:58:18;;;;;;;16.67;12.45;;;;;;;;;;10496909;28;20069;-75
2021/10/18 23:03:19;;;;;;;14.45;10.73;;;;;;;;;;10497334;28;20052;-74
2021/10/18 23:08:19;;;;;;;19.92;12.13;;;;;;;;;;10496906;28;20079;-75
2021/10/18 23:13:19;;;;;;;15.95;9.95;;;;;;;;;;10496242;28;20112;-74
2021/10/18 23:18:20;;;;;;;15.70;11.50;;;;;;;;;;10496884;28;20419;-75
2021/10/18 23:23:22;;;;;;;12.85;11.27;;;;;;;;;;10502337;28;20028;-74
2021/10/18 23:28:22;;;;;;;25.25;12.70;;;;;;;;;;10503037;28;20029;-74
2021/10/18 23:33:22;;;;;;;13.90;9.90;;;;;;;;;;10503955;28;20044;-74
2021/10/18 23:38:23;;;;;;;12.20;10.93;;;;;;;;;;10503538;28;20091;-74
2021/10/18 23:43:23;;;;;;;15.57;10.82;;;;;;;;;;10503246;28;20120;-73
2021/10/18 23:48:23;;;;;;;11.27;10.02;;;;;;;;;;10500880;28;20127;-74
2021/10/18 23:53:23;;;;;;;22.80;11.63;;;;;;;;;;10503096;28;20033;-74
2021/10/18 23:58:23;;;;;;;10.80;8.20;;;;;;;;;;10503395;28;20028;-74
